createdAt,value
2022-11-16T00:03:32.937Z,100511.88
2022-11-16T00:08:42.830Z,100508.38
2022-11-16T00:13:50.670Z,100504.37
2022-11-16T00:19:00.856Z,100500.45
2022-11-16T00:24:11.733Z,100506.25
2022-11-16T00:29:21.796Z,100506.02
2022-11-16T00:34:29.730Z,100508.02
2022-11-16T00:39:37.577Z,100507.26
2022-11-16T00:44:45.453Z,100508.23
2022-11-16T00:49:53.653Z,100507.70
2022-11-16T00:55:01.991Z,100505.02
2022-11-16T01:00:12.847Z,100511.54
2022-11-16T01:05:21.438Z,100522.42
2022-11-16T01:10:30.486Z,100529.35
2022-11-16T01:15:40.649Z,100535.63
2022-11-16T01:20:48.936Z,100527.79
2022-11-16T01:26:01.927Z,100518.52
2022-11-16T01:31:12.608Z,100510.69
2022-11-16T01:36:21.445Z,100506.36
2022-11-16T01:41:28.134Z,100502.17
2022-11-16T01:46:38.855Z,100496.33
2022-11-16T01:51:54.842Z,100493.34
2022-11-16T01:57:10.165Z,100486.73
2022-11-16T02:02:21.488Z,100483.30
2022-11-16T02:07:56.851Z,100477.95
2022-11-16T02:13:28.822Z,100472.97
2022-11-16T02:18:42.804Z,100469.80
2022-11-16T02:24:21.181Z,100467.88
2022-11-16T02:29:34.067Z,100464.49
2022-11-16T02:34:46.422Z,100462.03
2022-11-16T02:39:58.637Z,100467.71
2022-11-16T02:45:11.350Z,100458.87
2022-11-16T02:50:23.473Z,100449.64
2022-11-16T02:55:36.925Z,100445.41
2022-11-16T03:00:49.622Z,100440.80
2022-11-16T03:06:04.835Z,100440.32
2022-11-16T03:11:31.999Z,100441.23
2022-11-16T03:16:44.417Z,100449.10
2022-11-16T03:21:57.576Z,100446.05
2022-11-16T03:27:12.776Z,100445.35
2022-11-16T03:32:26.144Z,100451.84
2022-11-16T03:37:37.157Z,100443.60
2022-11-16T03:42:49.584Z,100440.69
2022-11-16T03:47:57.411Z,100440.64
2022-11-16T03:53:06.079Z,100437.95
2022-11-16T03:58:18.749Z,100433.98
2022-11-16T04:03:27.056Z,100430.73
2022-11-16T04:08:52.733Z,100426.11
2022-11-16T04:14:18.293Z,100427.02
2022-11-16T04:19:44.043Z,100421.02
2022-11-16T04:24:55.516Z,100415.61
2022-11-16T04:30:05.584Z,100413.14
2022-11-16T04:35:43.504Z,100412.40
2022-11-16T04:40:51.409Z,100408.71
2022-11-16T04:46:16.697Z,100403.02
2022-11-16T04:51:24.545Z,100403.44
2022-11-16T04:56:30.864Z,100403.21
2022-11-16T05:01:56.824Z,100398.08
2022-11-16T05:07:04.955Z,100392.23
2022-11-16T05:12:15.905Z,100389.98
2022-11-16T05:17:25.416Z,100384.36
2022-11-16T05:22:33.873Z,100385.59
2022-11-16T05:27:42.783Z,100387.94
2022-11-16T05:32:48.981Z,100386.01
2022-11-16T05:37:57.221Z,100380.98
2022-11-16T05:43:05.059Z,100380.71
2022-11-16T05:48:15.928Z,100387.38
2022-11-16T05:53:24.617Z,100380.71
2022-11-16T05:58:33.086Z,100376.15
2022-11-16T06:03:41.818Z,100371.54
2022-11-16T06:08:49.988Z,100366.39
2022-11-16T06:14:01.577Z,100367.52
2022-11-16T06:19:09.314Z,100368.11
2022-11-16T06:24:15.958Z,100364.10
2022-11-16T06:29:24.103Z,100371.17
2022-11-16T06:34:32.942Z,100369.55
2022-11-16T06:39:40.763Z,100370.48
2022-11-16T06:44:49.956Z,100365.11
2022-11-16T06:49:59.497Z,100363.41
2022-11-16T06:55:06.497Z,100364.81
2022-11-16T07:00:17.454Z,100368.09
2022-11-16T07:05:25.940Z,100375.21
2022-11-16T07:10:36.646Z,100365.67
2022-11-16T07:15:44.651Z,100364.27
2022-11-16T07:20:51.021Z,100370.74
2022-11-16T07:26:02.455Z,100374.98
2022-11-16T07:31:17.469Z,100373.87
2022-11-16T07:36:25.942Z,100369.69
2022-11-16T07:41:35.375Z,100369.47
2022-11-16T07:46:54.039Z,100371.45
2022-11-16T07:52:03.800Z,100373.83
2022-11-16T07:57:16.323Z,100376.92
2022-11-16T08:02:25.719Z,100378.01
2022-11-16T08:07:35.969Z,100375.23
2022-11-16T08:12:43.924Z,100376.84
2022-11-16T08:17:50.424Z,100374.90
2022-11-16T08:23:03.071Z,100378.23
2022-11-16T08:28:14.665Z,100381.81
2022-11-16T08:33:24.707Z,100385.28
2022-11-16T08:38:33.944Z,100390.12
2022-11-16T08:43:42.415Z,100393.02
2022-11-16T08:48:50.483Z,100389.34
2022-11-16T08:54:01.824Z,100384.34
2022-11-16T08:59:09.772Z,100386.38
2022-11-16T09:04:20.559Z,100388.09
2022-11-16T09:09:28.560Z,100389.59
2022-11-16T09:14:36.215Z,100387.61
2022-11-16T09:19:43.836Z,100380.70
2022-11-16T09:24:51.775Z,100382.46
2022-11-16T09:29:59.414Z,100381.67
2022-11-16T09:35:08.124Z,100379.58
2022-11-16T09:40:16.158Z,100380.48
2022-11-16T09:45:26.096Z,100378.34
2022-11-16T09:50:42.025Z,100374.20
2022-11-16T09:55:53.735Z,100365.39
2022-11-16T10:01:09.126Z,100362.86
2022-11-16T10:06:24.023Z,100365.96
2022-11-16T10:11:52.934Z,100361.77
2022-11-16T10:17:07.419Z,100354.54
2022-11-16T10:22:29.332Z,100351.36
2022-11-16T10:27:54.132Z,100351.52
2022-11-16T10:33:11.076Z,100345.63
2022-11-16T10:38:23.736Z,100350.15
2022-11-16T10:43:33.777Z,100350.64
2022-11-16T10:48:50.397Z,100344.92
2022-11-16T10:53:58.301Z,100345.73
2022-11-16T10:59:07.998Z,100348.42
2022-11-16T11:04:23.616Z,100342.80
2022-11-16T11:09:33.948Z,100346.66
2022-11-16T11:15:01.245Z,100353.15
2022-11-16T11:20:22.080Z,100354.55
2022-11-16T11:25:34.502Z,100356.05
2022-11-16T11:30:42.516Z,100359.16
2022-11-16T11:35:58.097Z,100357.63
2022-11-16T11:41:06.526Z,100354.30
2022-11-16T11:46:20.415Z,100354.36
2022-11-16T11:51:34.783Z,100356.77
2022-11-16T11:56:42.640Z,100357.52
2022-11-16T12:02:11.050Z,100363.62
2022-11-16T12:07:33.198Z,100368.39
2022-11-16T12:12:51.866Z,100367.46
2022-11-16T12:18:11.545Z,100363.73
2022-11-16T12:23:32.492Z,100359.50
2022-11-16T12:28:58.201Z,100358.20
2022-11-16T12:34:17.015Z,100351.89
2022-11-16T12:39:33.423Z,100353.54
2022-11-16T12:44:59.844Z,100353.11
2022-11-16T12:50:17.739Z,100354.67
2022-11-16T12:55:35.927Z,100351.27
2022-11-16T13:00:54.770Z,100350.33
2022-11-16T13:06:06.123Z,100353.96
2022-11-16T13:11:17.607Z,100356.05
2022-11-16T13:16:27.161Z,100359.56
2022-11-16T13:21:44.528Z,100353.88
2022-11-16T13:27:01.953Z,100357.40
2022-11-16T13:32:15.334Z,100354.27
2022-11-16T13:37:44.631Z,100352.98
2022-11-16T13:43:06.147Z,100353.70
2022-11-16T13:48:21.170Z,100354.85
2022-11-16T13:59:01.286Z,100360.77
2022-11-16T14:04:35.231Z,100359.02
2022-11-16T14:09:49.904Z,100358.34
2022-11-16T14:15:17.068Z,100351.38
2022-11-16T14:20:44.137Z,100351.06
2022-11-16T14:25:56.786Z,100349.04
2022-11-16T14:31:15.815Z,100343.81
2022-11-16T14:36:38.869Z,100347.95
2022-11-16T14:41:48.470Z,100351.73
2022-11-16T14:46:55.852Z,100350.73
2022-11-16T14:52:07.031Z,100347.87
2022-11-16T14:57:21.249Z,100348.05
2022-11-16T15:02:29.358Z,100347.35
2022-11-16T15:07:36.383Z,100345.14
2022-11-16T15:12:51.471Z,100349.05
2022-11-16T15:18:13.071Z,100347.77
2022-11-16T15:23:23.837Z,100342.72
2022-11-16T15:28:34.962Z,100339.42
2022-11-16T15:33:45.328Z,100344.11
2022-11-16T15:38:54.082Z,100344.89
2022-11-16T15:44:14.442Z,100344.07
2022-11-16T15:49:30.091Z,100342.75
2022-11-16T15:54:52.025Z,100335.95
2022-11-16T15:59:59.294Z,100337.55
2022-11-16T16:05:07.082Z,100332.60
2022-11-16T16:10:25.867Z,100336.88
2022-11-16T16:15:36.230Z,100341.34
2022-11-16T16:20:49.993Z,100351.97
2022-11-16T16:25:56.832Z,100350.93
2022-11-16T16:31:03.746Z,100357.71
2022-11-16T16:36:13.801Z,100367.42
2022-11-16T16:41:24.466Z,100376.52
2022-11-16T16:46:31.743Z,100383.33
2022-11-16T16:51:38.623Z,100389.14
2022-11-16T16:56:45.599Z,100393.95
2022-11-16T17:01:53.028Z,100388.02
2022-11-16T17:07:00.085Z,100393.66
2022-11-16T17:12:07.506Z,100397.05
2022-11-16T17:17:14.457Z,100400.44
2022-11-16T17:22:22.284Z,100405.71
2022-11-16T17:27:29.246Z,100406.84
2022-11-16T17:32:36.156Z,100410.04
2022-11-16T17:37:43.586Z,100411.39
2022-11-16T17:42:50.522Z,100411.69
2022-11-16T17:47:57.492Z,100420.55
2022-11-16T17:53:04.460Z,100421.92
2022-11-16T17:58:11.401Z,100415.93
2022-11-16T18:03:18.448Z,100414.18
2022-11-16T18:08:25.546Z,100410.95
2022-11-16T18:13:32.872Z,100409.40
2022-11-16T18:18:43.173Z,100402.84
2022-11-16T18:23:50.251Z,100404.81
2022-11-16T18:28:57.129Z,100407.52
2022-11-16T18:34:04.461Z,100403.94
2022-11-16T18:39:11.483Z,100409.89
2022-11-16T18:44:18.420Z,100402.35
2022-11-16T18:49:25.280Z,100402.45
2022-11-16T18:54:32.222Z,100401.35
2022-11-16T18:59:39.351Z,100399.46
2022-11-16T19:04:46.337Z,100397.56
2022-11-16T19:09:53.505Z,100399.55
2022-11-16T19:15:00.601Z,100403.46
2022-11-16T19:20:09.033Z,100406.02
2022-11-16T19:25:21.518Z,100410.06
2022-11-16T19:30:28.494Z,100408.22
2022-11-16T19:35:35.431Z,100407.86
2022-11-16T19:40:42.306Z,100401.65
2022-11-16T19:45:49.276Z,100401.69
2022-11-16T19:50:56.198Z,100398.91
2022-11-16T19:56:03.423Z,100399.39
2022-11-16T20:01:13.223Z,100398.02
2022-11-16T20:06:22.730Z,100402.04
2022-11-16T20:11:31.688Z,100403.44
2022-11-16T20:16:39.837Z,100404.27
2022-11-16T20:21:46.826Z,100404.27
2022-11-16T20:26:53.837Z,100404.81
2022-11-16T20:32:00.683Z,100407.12
2022-11-16T20:37:08.699Z,100405.64
2022-11-16T20:42:15.657Z,100404.19
2022-11-16T20:47:22.511Z,100405.79
2022-11-16T20:52:29.405Z,100408.44
2022-11-16T20:57:36.403Z,100412.96
2022-11-16T21:02:43.304Z,100409.19
2022-11-16T21:07:50.194Z,100410.59
2022-11-16T21:13:16.827Z,100413.41
2022-11-16T21:18:30.377Z,100414.96
2022-11-16T21:23:40.129Z,100407.97
2022-11-16T21:28:47.487Z,100406.55
2022-11-16T21:33:55.479Z,100402.85
2022-11-16T21:39:01.499Z,100392.86
2022-11-16T21:44:10.220Z,100390.20
2022-11-16T21:49:17.130Z,100389.41
2022-11-16T21:54:44.283Z,100398.16
2022-11-16T21:59:51.495Z,100396.77
2022-11-16T22:05:21.557Z,100396.13
2022-11-16T22:10:28.720Z,100395.29
2022-11-16T22:15:35.845Z,100407.72
2022-11-16T22:20:42.995Z,100419.79
2022-11-16T22:25:50.042Z,100421.71
2022-11-16T22:31:04.433Z,100421.00
2022-11-16T22:36:13.499Z,100411.14
2022-11-16T22:41:21.179Z,100407.52
2022-11-16T22:46:28.174Z,100397.33
2022-11-16T22:51:35.242Z,100395.10
2022-11-16T22:56:42.678Z,100397.23
2022-11-16T23:01:49.534Z,100398.43
2022-11-16T23:06:56.519Z,100399.73
2022-11-16T23:12:21.146Z,100396.69
2022-11-16T23:17:28.138Z,100392.55
2022-11-16T23:22:52.951Z,100385.81
2022-11-16T23:28:04.385Z,100385.75
2022-11-16T23:33:11.759Z,100388.30
2022-11-16T23:38:18.736Z,100393.54
2022-11-16T23:43:43.577Z,100397.37
2022-11-16T23:48:50.536Z,100398.08
2022-11-16T23:53:57.972Z,100396.52
2022-11-16T23:59:04.876Z,100395.02
